Time;durP1;ratioP1;P1;durP2;ratioP2;P2;SDS_P1;SDS_P2;PMS_P1;PMS_P2;Temp;Humidity;BMP_temperature;BMP_pressure;BME280_temperature;BME280_humidity;BME280_pressure;Samples;Min_cycle;Max_cycle;Signal;HPM_P1;HPM_P2
2022/01/01 00:02:31;;;;;;;0.57;0.40;;;;;;;14.68;100.00;99863.38;6243330;22;20031;-48
2022/01/01 00:05:35;;;;;;;3.67;0.98;;;;;;;14.74;100.00;99869.78;6241558;22;20031;-48
2022/01/01 00:08:39;;;;;;;3.97;0.90;;;;;;;14.75;100.00;99860.06;6242034;22;20074;-48
2022/01/01 00:11:44;;;;;;;0.73;0.30;;;;;;;14.71;100.00;99842.75;6242477;22;20031;-48
2022/01/01 00:14:48;;;;;;;9.95;0.75;;;;;;;14.89;100.00;99850.72;6219550;23;20043;-48
2022/01/01 00:17:52;;;;;;;3.63;1.08;;;;;;;14.96;100.00;99844.63;6242645;22;20032;-54
2022/01/01 00:20:55;;;;;;;18.13;2.55;;;;;;;15.07;100.00;99852.28;6242344;22;20034;-54
2022/01/01 00:23:58;;;;;;;2.15;0.85;;;;;;;15.17;100.00;99845.16;6242334;22;20031;-54
2022/01/01 00:27:02;;;;;;;0.52;0.40;;;;;;;15.24;100.00;99852.31;6241326;22;20027;-54
2022/01/01 00:30:07;;;;;;;3.97;1.30;;;;;;;15.17;100.00;99840.31;6242849;22;20027;-54
2022/01/01 00:33:11;;;;;;;4.88;0.80;;;;;;;15.19;100.00;99849.00;6242388;22;20471;-54
2022/01/01 00:36:14;;;;;;;3.35;1.40;;;;;;;15.24;100.00;99822.22;6242076;22;20031;-55
2022/01/01 00:39:17;;;;;;;3.47;0.73;;;;;;;15.35;100.00;99830.66;6241480;22;20027;-54
2022/01/01 00:42:22;;;;;;;9.63;0.95;;;;;;;15.47;100.00;99834.25;6241542;22;20060;-54
2022/01/01 00:45:25;;;;;;;2.58;0.65;;;;;;;15.57;100.00;99821.50;6243593;22;20479;-53
2022/01/01 00:48:29;;;;;;;6.32;0.90;;;;;;;15.57;100.00;99818.69;6243413;22;20822;-54
2022/01/01 00:51:33;;;;;;;6.60;1.00;;;;;;;15.63;100.00;99828.66;6243139;22;20400;-54
2022/01/01 00:54:36;;;;;;;7.82;1.60;;;;;;;15.61;100.00;99824.81;6242804;22;20023;-54
2022/01/01 00:57:40;;;;;;;2.55;1.05;;;;;;;15.63;100.00;99825.06;6243439;22;20036;-54
2022/01/01 01:00:44;;;;;;;32.45;1.92;;;;;;;15.64;100.00;99832.97;6242754;22;20031;-54
2022/01/01 01:03:48;;;;;;;7.53;1.05;;;;;;;15.65;100.00;99822.53;6242202;22;20053;-54
2022/01/01 01:06:52;;;;;;;9.07;1.75;;;;;;;15.63;100.00;99817.41;6240356;22;20031;-54
2022/01/01 01:09:55;;;;;;;5.05;1.38;;;;;;;15.67;100.00;99819.97;6241915;22;20023;-54
2022/01/01 01:13:00;;;;;;;2.80;0.55;;;;;;;15.61;100.00;99816.41;6241742;22;20027;-54
2022/01/01 01:16:04;;;;;;;3.72;1.00;;;;;;;15.54;100.00;99811.28;6241192;22;20035;-54
2022/01/01 01:19:07;;;;;;;3.63;1.25;;;;;;;15.49;100.00;99803.63;6233039;22;20043;-54
2022/01/01 01:22:11;;;;;;;3.67;1.20;;;;;;;15.48;100.00;99807.72;6234485;22;20023;-54
2022/01/01 01:25:15;;;;;;;1.35;0.35;;;;;;;15.40;100.00;99789.84;6240513;22;20027;-54
2022/01/01 01:28:19;;;;;;;7.13;0.90;;;;;;;15.40;100.00;99795.44;6240329;22;20022;-53
2022/01/01 01:31:24;;;;;;;3.13;1.08;;;;;;;15.40;100.00;99779.34;6240456;22;20031;-54
2022/01/01 01:34:28;;;;;;;4.53;1.35;;;;;;;15.38;100.00;99775.53;6241535;22;20027;-54
2022/01/01 01:37:32;;;;;;;2.10;0.80;;;;;;;15.51;100.00;99778.63;6240522;22;20031;-54
2022/01/01 01:40:35;;;;;;;2.65;0.82;;;;;;;15.54;100.00;99783.22;6241484;22;20416;-54
2022/01/01 01:43:39;;;;;;;2.08;0.93;;;;;;;15.47;100.00;99784.50;6241414;22;20023;-54
2022/01/01 01:46:42;;;;;;;3.85;0.77;;;;;;;15.43;100.00;99794.41;6241405;22;20023;-54
2022/01/01 01:49:46;;;;;;;6.30;1.27;;;;;;;15.29;100.00;99795.44;6240838;22;20027;-54
2022/01/01 01:52:53;;;;;;;3.38;0.70;;;;;;;15.32;100.00;99783.19;6240809;22;20027;-54
2022/01/01 01:56:00;;;;;;;2.70;0.82;;;;;;;15.31;100.00;99792.91;6240414;22;20023;-54
2022/01/01 01:59:03;;;;;;;5.10;1.42;;;;;;;15.32;100.00;99783.19;6241216;22;20463;-54
2022/01/01 02:02:07;;;;;;;2.42;0.85;;;;;;;15.41;100.00;99771.72;6240478;22;20023;-54
2022/01/01 02:05:11;;;;;;;2.65;0.85;;;;;;;15.44;100.00;99762.31;6242901;22;20031;-54
2022/01/01 02:08:16;;;;;;;5.45;1.23;;;;;;;15.44;100.00;99751.09;6241710;22;20027;-54
2022/01/01 02:11:21;;;;;;;4.50;1.58;;;;;;;15.47;100.00;99758.47;6241113;22;20034;-53
2022/01/01 02:14:37;;;;;;;3.25;0.50;;;;;;;15.39;100.00;99758.19;6243101;22;20031;-54
2022/01/01 02:17:40;;;;;;;7.05;1.90;;;;;;;15.34;100.00;99758.97;6243026;22;20031;-54
2022/01/01 02:20:49;;;;;;;4.20;1.08;;;;;;;15.40;100.00;99761.78;6242208;22;20028;-54
2022/01/01 02:23:57;;;;;;;4.72;1.77;;;;;;;15.38;100.00;99764.31;6241680;22;20334;-54
2022/01/01 02:27:00;;;;;;;3.25;1.42;;;;;;;15.32;100.00;99777.56;6241397;22;20483;-54
2022/01/01 02:30:09;;;;;;;5.65;1.52;;;;;;;15.31;100.00;99774.00;6241362;22;20035;-54
2022/01/01 02:33:13;;;;;;;0.95;0.47;;;;;;;15.22;100.00;99767.88;6241477;22;20055;-54
2022/01/01 02:36:29;;;;;;;9.80;1.73;;;;;;;15.05;100.00;99765.09;6237103;22;20049;-54
2022/01/01 02:39:33;;;;;;;9.43;2.15;;;;;;;15.01;100.00;99765.31;6241761;22;20047;-54
2022/01/01 02:42:39;;;;;;;2.40;0.60;;;;;;;15.06;100.00;99750.53;6243136;22;20460;-54
2022/01/01 02:45:42;;;;;;;8.43;1.70;;;;;;;15.09;100.00;99760.72;6243906;22;20047;-54
2022/01/01 02:48:46;;;;;;;2.15;0.25;;;;;;;15.10;100.00;99759.47;6243476;22;20047;-54
2022/01/01 02:51:50;;;;;;;1.75;0.82;;;;;;;15.11;100.00;99735.00;6243513;22;20031;-54
2022/01/01 02:54:53;;;;;;;2.60;0.63;;;;;;;15.11;100.00;99747.00;6242835;22;20356;-54
2022/01/01 02:57:57;;;;;;;1.40;0.75;;;;;;;15.13;100.00;99743.66;6243209;22;20031;-54
2022/01/01 03:01:00;;;;;;;2.92;0.73;;;;;;;15.16;100.00;99739.81;6243408;22;20031;-54
2022/01/01 03:04:04;;;;;;;3.10;1.10;;;;;;;15.22;100.00;99742.63;6243735;22;20031;-54
2022/01/01 03:07:07;;;;;;;8.00;1.17;;;;;;;15.28;100.00;99738.56;6235337;22;20031;-54
2022/01/01 03:10:10;;;;;;;3.08;0.93;;;;;;;15.18;100.00;99738.03;6243331;22;20035;-54
2022/01/01 03:13:13;;;;;;;5.15;1.35;;;;;;;15.09;100.00;99731.94;6243214;22;20031;-54
2022/01/01 03:16:17;;;;;;;11.93;0.80;;;;;;;15.06;100.00;99733.72;6243140;22;20027;-53
2022/01/01 03:19:21;;;;;;;5.15;1.20;;;;;;;15.05;100.00;99723.75;6244603;22;20036;-53
2022/01/01 03:22:24;;;;;;;2.40;0.65;;;;;;;15.11;100.00;99718.94;6243879;22;20035;-53
2022/01/01 03:25:29;;;;;;;3.08;1.20;;;;;;;15.08;100.00;99716.38;6243731;22;20047;-53
2022/01/01 03:28:32;;;;;;;1.85;0.68;;;;;;;15.07;100.00;99712.06;6243966;22;20031;-53
2022/01/01 03:31:36;;;;;;;4.43;1.65;;;;;;;15.14;100.00;99717.91;6243807;22;20031;-54
2022/01/01 03:34:39;;;;;;;1.55;0.73;;;;;;;15.10;100.00;99706.16;6243876;22;20031;-53
2022/01/01 03:37:43;;;;;;;16.58;1.27;;;;;;;15.41;100.00;99691.09;6241560;22;20270;-54
2022/01/01 03:40:47;;;;;;;1.30;0.60;;;;;;;15.45;100.00;99679.63;6243750;22;20031;-54
2022/01/01 03:43:50;;;;;;;3.13;0.90;;;;;;;15.46;100.00;99675.56;6242809;22;20031;-54
2022/01/01 03:47:06;;;;;;;7.00;1.30;;;;;;;15.49;100.00;99666.09;6243080;22;20031;-54
2022/01/01 03:50:10;;;;;;;0.68;0.68;;;;;;;15.44;100.00;99650.06;6242917;22;20035;-54
2022/01/01 03:53:16;;;;;;;6.13;1.42;;;;;;;15.45;100.00;99646.72;6243221;22;20031;-54
2022/01/01 03:56:19;;;;;;;2.92;1.17;;;;;;;15.45;100.00;99637.53;6242147;22;20059;-53
2022/01/01 03:59:25;;;;;;;4.28;0.82;;;;;;;15.45;100.00;99640.34;6244551;22;20035;-54
2022/01/01 04:02:28;;;;;;;7.25;0.70;;;;;;;15.40;100.00;99639.03;6243481;22;20031;-54
2022/01/01 04:05:35;;;;;;;5.30;1.25;;;;;;;15.33;100.00;99639.59;6243423;22;20035;-54
2022/01/01 04:08:38;;;;;;;1.75;0.57;;;;;;;15.34;100.00;99640.34;6242904;22;20031;-54
2022/01/01 04:11:42;;;;;;;1.98;0.47;;;;;;;15.25;100.00;99623.78;6243211;22;20027;-53
2022/01/01 04:14:46;;;;;;;3.42;0.80;;;;;;;15.37;100.00;99640.09;6242595;22;20027;-53
2022/01/01 04:17:49;;;;;;;2.10;0.52;;;;;;;15.29;100.00;99627.84;6242517;22;20042;-54
2022/01/01 04:20:53;;;;;;;1.77;0.80;;;;;;;15.23;100.00;99620.72;6241467;22;20333;-54
2022/01/01 04:23:56;;;;;;;4.72;1.83;;;;;;;15.27;100.00;99626.84;6242408;22;20122;-55
2022/01/01 04:26:59;;;;;;;2.45;0.55;;;;;;;15.29;100.00;99630.66;6241774;22;20031;-54
2022/01/01 04:30:03;;;;;;;0.85;0.38;;;;;;;15.25;100.00;99635.75;6242437;22;20031;-54
2022/01/01 04:33:07;;;;;;;1.60;0.28;;;;;;;15.32;100.00;99626.06;6226073;22;20031;-54
2022/01/01 04:36:11;;;;;;;1.65;0.35;;;;;;;15.39;100.00;99617.13;6242295;22;20464;-54
2022/01/01 04:39:14;;;;;;;1.17;0.65;;;;;;;15.47;100.00;99624.53;6241280;22;20039;-54
2022/01/01 04:42:18;;;;;;;0.93;0.65;;;;;;;15.52;100.00;99631.41;6241763;22;20031;-54
2022/01/01 04:45:21;;;;;;;3.85;1.30;;;;;;;15.53;100.00;99652.56;6242579;22;20480;-53
2022/01/01 04:48:25;;;;;;;1.75;0.40;;;;;;;15.51;100.00;99629.88;6243454;22;20023;-54
2022/01/01 04:51:29;;;;;;;0.52;0.30;;;;;;;15.51;100.00;99615.81;6241947;22;20035;-54
2022/01/01 04:54:34;;;;;;;1.17;0.43;;;;;;;15.50;100.00;99617.88;6243083;22;20035;-54
2022/01/01 04:57:37;;;;;;;2.15;0.85;;;;;;;15.45;100.00;99607.44;6242426;22;20460;-54
2022/01/01 05:00:41;;;;;;;6.05;0.75;;;;;;;15.43;100.00;99593.16;6242887;22;20042;-54
2022/01/01 05:03:45;;;;;;;1.50;0.73;;;;;;;15.52;100.00;99589.31;6242592;22;20340;-54
2022/01/01 05:06:49;;;;;;;2.30;0.57;;;;;;;15.49;100.00;99590.31;6241851;22;20583;-54
2022/01/01 05:09:53;;;;;;;1.98;1.17;;;;;;;15.48;100.00;99580.38;6242131;22;20352;-54
2022/01/01 05:12:56;;;;;;;1.85;0.85;;;;;;;15.47;100.00;99570.44;6242078;22;20029;-54
2022/01/01 05:15:59;;;;;;;2.03;0.40;;;;;;;15.50;100.00;99570.19;6242266;22;20495;-54
2022/01/01 05:19:03;;;;;;;11.80;0.95;;;;;;;15.48;100.00;99552.31;6242178;22;20480;-54
2022/01/01 05:22:06;;;;;;;6.13;1.55;;;;;;;15.41;100.00;99555.63;6242136;22;20031;-54
2022/01/01 05:25:10;;;;;;;1.55;1.20;;;;;;;15.41;100.00;99550.03;6242359;22;20031;-53
2022/01/01 05:28:13;;;;;;;6.20;1.05;;;;;;;15.37;100.00;99557.94;6242750;22;20026;-53
2022/01/01 05:31:19;;;;;;;4.70;0.73;;;;;;;15.23;100.00;99559.00;6240912;22;20023;-54
2022/01/01 05:34:22;;;;;;;3.03;0.80;;;;;;;15.16;100.00;99551.88;6241388;22;20361;-53
2022/01/01 05:37:26;;;;;;;3.13;1.13;;;;;;;15.10;100.00;99543.50;6241643;22;20031;-53
2022/01/01 05:40:30;;;;;;;1.25;0.30;;;;;;;15.19;100.00;99546.03;6244885;22;20051;-53
2022/01/01 05:43:34;;;;;;;3.65;0.65;;;;;;;15.03;100.00;99546.81;6243776;22;20375;-53
2022/01/01 05:46:37;;;;;;;2.00;0.52;;;;;;;14.98;100.00;99544.81;6244881;22;20352;-54
2022/01/01 05:49:41;;;;;;;3.25;0.70;;;;;;;14.97;100.00;99532.03;6244272;22;20027;-54
2022/01/01 05:52:44;;;;;;;1.85;0.85;;;;;;;14.87;100.00;99539.22;6244410;22;20027;-53
2022/01/01 05:55:48;;;;;;;8.48;1.95;;;;;;;14.91;100.00;99527.72;6243535;22;20031;-54
2022/01/01 05:58:52;;;;;;;3.15;0.77;;;;;;;14.84;100.00;99531.06;6244060;22;20031;-54
2022/01/01 06:01:55;;;;;;;4.53;0.88;;;;;;;14.89;100.00;99539.47;6243907;22;20027;-54
2022/01/01 06:05:00;;;;;;;2.17;0.95;;;;;;;14.98;100.00;99530.00;6244222;22;20027;-54
2022/01/01 06:08:04;;;;;;;1.17;0.68;;;;;;;15.03;100.00;99527.19;6243265;22;20035;-54
2022/01/01 06:11:08;;;;;;;2.40;0.63;;;;;;;15.06;100.00;99509.34;6236361;22;20031;-54
2022/01/01 06:14:12;;;;;;;1.45;0.32;;;;;;;15.11;100.00;99502.97;6243549;22;20031;-54
2022/01/01 06:17:15;;;;;;;2.63;1.17;;;;;;;15.10;100.00;99509.06;6243705;22;20028;-54
2022/01/01 06:20:19;;;;;;;5.13;1.13;;;;;;;14.99;100.00;99515.47;6244223;22;20384;-53
2022/01/01 06:23:22;;;;;;;9.13;1.17;;;;;;;14.96;100.00;99522.13;6245410;22;20031;-53
2022/01/01 06:26:26;;;;;;;2.50;0.57;;;;;;;14.91;100.00;99492.06;6243983;22;20031;-53
2022/01/01 06:29:29;;;;;;;1.52;0.43;;;;;;;14.87;100.00;99497.16;6245367;22;20039;-54
2022/01/01 06:32:33;;;;;;;4.95;1.20;;;;;;;14.98;100.00;99491.53;6244708;22;20035;-54
2022/01/01 06:35:37;;;;;;;2.15;0.75;;;;;;;15.02;100.00;99492.03;6244858;22;20329;-53
2022/01/01 06:38:42;;;;;;;3.70;0.60;;;;;;;14.97;100.00;99478.00;6243857;22;20051;-53
2022/01/01 06:41:46;;;;;;;1.45;1.02;;;;;;;15.03;100.00;99487.16;6243488;22;20472;-54
2022/01/01 06:44:50;;;;;;;0.90;0.60;;;;;;;15.04;100.00;99489.47;6243385;22;20460;-54
2022/01/01 06:47:53;;;;;;;3.78;1.08;;;;;;;15.07;100.00;99482.81;6243676;22;20035;-53
2022/01/01 06:50:56;;;;;;;1.40;0.20;;;;;;;15.03;100.00;99482.31;6242913;22;20031;-54
2022/01/01 06:53:59;;;;;;;5.25;1.50;;;;;;;15.08;100.00;99472.34;6243662;22;20027;-54
2022/01/01 06:57:03;;;;;;;2.30;0.50;;;;;;;15.06;100.00;99433.63;6240863;22;20031;-53
2022/01/01 07:00:08;;;;;;;3.70;0.90;;;;;;;15.08;100.00;99433.09;6239709;22;20039;-54
2022/01/01 07:03:11;;;;;;;3.50;0.30;;;;;;;15.02;100.00;99458.38;6239663;22;20035;-53
2022/01/01 07:06:15;;;;;;;6.22;0.98;;;;;;;14.97;100.00;99461.94;6242450;22;20047;-53
2022/01/01 07:09:18;;;;;;;3.95;0.50;;;;;;;14.99;100.00;99453.78;6241499;22;20023;-53
2022/01/01 07:12:22;;;;;;;6.03;0.85;;;;;;;15.11;100.00;99423.66;6241071;22;20035;-54
2022/01/01 07:15:25;;;;;;;2.78;0.50;;;;;;;15.22;100.00;99408.81;6240540;22;20027;-53
2022/01/01 07:18:29;;;;;;;3.55;0.60;;;;;;;15.47;100.00;99414.03;6241982;22;20027;-53
2022/01/01 07:21:33;;;;;;;5.07;1.27;;;;;;;15.60;100.00;99424.66;6241294;22;20035;-54
2022/01/01 07:24:36;;;;;;;2.05;0.77;;;;;;;15.65;100.00;99423.88;6242572;22;20036;-54
2022/01/01 07:27:41;;;;;;;19.70;1.15;;;;;;;15.54;100.00;99415.53;6242493;22;20027;-54
2022/01/01 07:30:45;;;;;;;2.58;0.45;;;;;;;15.51;100.00;99405.34;6241927;22;20031;-53
2022/01/01 07:33:49;;;;;;;1.27;0.60;;;;;;;15.23;100.00;99418.72;6242088;22;20027;-54
2022/01/01 07:36:52;;;;;;;10.65;0.88;;;;;;;14.95;100.00;99436.47;6242283;22;20364;-54
2022/01/01 07:39:55;;;;;;;14.32;0.85;;;;;;;15.01;100.00;99451.22;6241540;22;20035;-54
2022/01/01 07:42:59;;;;;;;9.18;0.50;;;;;;;15.02;100.00;99433.13;6242245;22;20027;-54
2022/01/01 07:46:02;;;;;;;1.20;0.40;;;;;;;15.05;100.00;99443.28;6241641;22;20482;-54
2022/01/01 07:49:06;;;;;;;2.78;1.45;;;;;;;15.08;100.00;99453.50;6241589;22;20022;-54
2022/01/01 07:52:09;;;;;;;0.73;0.70;;;;;;;15.14;100.00;99448.63;6234887;22;20031;-55
2022/01/01 07:55:13;;;;;;;3.72;0.80;;;;;;;15.16;100.00;99468.50;6241570;22;20491;-54
2022/01/01 07:58:16;;;;;;;5.78;0.65;;;;;;;15.22;100.00;99459.31;6236457;22;20047;-54
2022/01/01 08:01:19;;;;;;;1.77;0.73;;;;;;;15.18;100.00;99446.28;6240940;22;20035;-53
2022/01/01 08:04:23;;;;;;;3.03;0.88;;;;;;;15.17;100.00;99435.59;6243381;22;20027;-54
2022/01/01 08:07:27;;;;;;;1.10;0.63;;;;;;;15.14;100.00;99426.19;6241680;22;20043;-53
2022/01/01 08:10:31;;;;;;;1.90;0.50;;;;;;;15.30;100.00;99415.38;6242839;22;20027;-53
2022/01/01 08:13:36;;;;;;;4.25;1.17;;;;;;;15.35;100.00;99432.22;6241891;22;20035;-54
2022/01/01 08:17:03;;;;;;;7.45;1.25;;;;;;;15.34;100.00;99432.72;6242573;22;20031;-54
2022/01/01 08:20:07;;;;;;;0.55;0.25;;;;;;;15.39;100.00;99401.06;6240685;22;20345;-54
2022/01/01 08:23:11;;;;;;;1.83;0.75;;;;;;;15.33;100.00;99405.94;6241760;22;20043;-54
2022/01/01 08:26:15;;;;;;;0.70;0.30;;;;;;;15.24;100.00;99429.47;6240640;22;20027;-54
2022/01/01 08:29:18;;;;;;;3.72;2.03;;;;;;;15.24;100.00;99440.69;6240184;22;20023;-53
2022/01/01 08:32:21;;;;;;;2.40;1.40;;;;;;;15.18;100.00;99446.28;6240821;22;20378;-53
2022/01/01 08:35:25;;;;;;;5.05;1.25;;;;;;;15.25;100.00;99442.19;6244353;22;20027;-53
2022/01/01 08:38:30;;;;;;;2.17;0.65;;;;;;;15.24;100.00;99439.91;6243063;22;20043;-53
2022/01/01 08:41:34;;;;;;;0.73;0.52;;;;;;;15.18;100.00;99431.53;6243546;22;20416;-54
2022/01/01 08:44:38;;;;;;;5.55;0.90;;;;;;;15.22;100.00;99445.28;6243051;22;20035;-54
2022/01/01 08:47:42;;;;;;;12.02;1.00;;;;;;;15.29;100.00;99447.53;6243115;22;20031;-54
2022/01/01 08:50:46;;;;;;;6.60;0.95;;;;;;;15.23;100.00;99438.38;6241618;22;20031;-54
2022/01/01 08:53:50;;;;;;;2.30;0.55;;;;;;;15.23;100.00;99438.38;6242332;22;20047;-54
2022/01/01 08:56:53;;;;;;;2.13;0.77;;;;;;;15.20;100.00;99418.50;6242010;22;20027;-54
2022/01/01 08:59:56;;;;;;;2.63;0.75;;;;;;;15.09;100.00;99392.56;6242179;22;20051;-54
2022/01/01 09:03:00;;;;;;;5.15;1.10;;;;;;;14.99;100.00;99406.09;6242217;22;20027;-54
2022/01/01 09:06:05;;;;;;;7.53;1.35;;;;;;;14.87;100.00;99412.28;6243733;22;20031;-54
2022/01/01 09:09:10;;;;;;;3.55;0.57;;;;;;;14.89;100.00;99416.09;6235506;22;20027;-54
2022/01/01 09:12:13;;;;;;;3.05;0.68;;;;;;;14.92;100.00;99406.63;6242982;22;20031;-54
2022/01/01 09:15:17;;;;;;;2.05;0.70;;;;;;;14.91;100.00;99396.72;6243640;22;20480;-53
2022/01/01 09:18:21;;;;;;;10.82;0.68;;;;;;;14.95;100.00;99400.00;6246949;22;20027;-53
2022/01/01 09:21:27;;;;;;;0.55;0.20;;;;;;;14.94;100.00;99398.47;6246525;22;20035;-54
2022/01/01 09:24:30;;;;;;;3.90;0.82;;;;;;;15.06;100.00;99410.41;6245532;22;20027;-53
2022/01/01 09:27:34;;;;;;;3.75;0.52;;;;;;;15.13;100.00;99407.84;6245604;22;20332;-54
2022/01/01 09:30:38;;;;;;;0.30;0.20;;;;;;;15.25;100.00;99413.38;6245122;22;20034;-53
2022/01/01 09:33:41;;;;;;;1.05;0.30;;;;;;;15.30;100.00;99415.38;6243648;22;20047;-53
2022/01/01 09:36:47;;;;;;;1.58;0.57;;;;;;;15.46;100.00;99420.19;6243261;22;20027;-54
2022/01/01 09:39:50;;;;;;;3.67;0.63;;;;;;;15.51;100.00;99414.53;6242977;22;20031;-53
2022/01/01 09:42:55;;;;;;;2.28;0.35;;;;;;;15.56;100.00;99438.22;6243305;22;20027;-53
2022/01/01 09:46:00;;;;;;;1.75;0.60;;;;;;;15.60;100.00;99444.31;6242994;22;20513;-53
2022/01/01 09:49:03;;;;;;;1.00;0.38;;;;;;;15.57;100.00;99439.75;6242904;22;20079;-53
2022/01/01 09:52:09;;;;;;;1.70;0.43;;;;;;;15.56;100.00;99443.84;6244696;22;20052;-53
2022/01/01 09:55:13;;;;;;;10.27;1.42;;;;;;;15.52;100.00;99437.75;6244388;22;20035;-53
2022/01/01 09:58:22;;;;;;;0.98;0.40;;;;;;;15.53;100.00;99428.03;6244042;22;20047;-52
2022/01/01 10:01:25;;;;;;;1.17;0.77;;;;;;;15.50;100.00;99440.31;6245353;22;20471;-53
2022/01/01 10:04:40;;;;;;;24.38;0.77;;;;;;;15.47;100.00;99441.34;6245564;22;20075;-54
2022/01/01 10:07:43;;;;;;;2.97;1.15;;;;;;;15.55;100.00;99440.25;6243858;22;20031;-53
2022/01/01 10:10:48;;;;;;;1.10;0.77;;;;;;;15.55;100.00;99431.09;6243940;22;20027;-53
2022/01/01 10:13:52;;;;;;;9.77;0.85;;;;;;;15.68;100.00;99434.81;6243704;22;20031;-53
2022/01/01 10:16:55;;;;;;;2.92;0.70;;;;;;;15.85;100.00;99431.91;6243946;22;20027;-53
2022/01/01 10:19:59;;;;;;;8.15;1.10;;;;;;;15.72;100.00;99434.56;6243369;22;20031;-53
2022/01/01 10:23:15;;;;;;;4.43;0.82;;;;;;;15.70;100.00;99451.16;6244199;22;20031;-53
2022/01/01 10:29:43;;;;;;;3.13;1.13;;;;;;;16.00;100.00;99460.38;6244520;22;20074;-53
2022/01/01 10:33:07;;;;;;;1.38;0.73;;;;;;;16.08;100.00;99454.94;6243554;22;20027;-53
2022/01/01 10:36:10;;;;;;;4.63;1.23;;;;;;;16.12;100.00;99473.06;6244261;22;20031;-53
2022/01/01 10:39:18;;;;;;;3.55;1.15;;;;;;;16.14;100.00;99484.53;6243920;22;20027;-54
2022/01/01 10:42:22;;;;;;;2.95;0.70;;;;;;;16.20;100.00;99479.63;6243110;22;20353;-53
2022/01/01 10:45:34;;;;;;;3.08;0.63;;;;;;;16.34;100.00;99469.28;6244742;22;20027;-54
2022/01/01 10:51:41;;;;;;;0.50;0.45;;;;;;;16.34;100.00;99466.47;6243747;22;20027;-53
2022/01/01 10:54:58;;;;;;;5.57;1.77;;;;;;;16.39;100.00;99458.00;6244200;22;20027;-53
2022/01/01 10:58:03;;;;;;;2.08;0.68;;;;;;;16.44;100.00;99460.00;6243794;22;20027;-55
2022/01/01 11:01:08;;;;;;;1.80;0.73;;;;;;;16.49;100.00;99452.78;6243069;22;20043;-53
2022/01/01 11:04:12;;;;;;;3.72;0.73;;;;;;;16.60;100.00;99450.69;6244340;22;20031;-53
2022/01/01 11:07:26;;;;;;;7.97;0.55;;;;;;;16.67;100.00;99452.88;6243968;22;20027;-54
2022/01/01 11:10:30;;;;;;;1.90;0.55;;;;;;;16.64;100.00;99450.38;6243548;22;20027;-53
2022/01/01 11:13:35;;;;;;;2.72;0.50;;;;;;;16.64;100.00;99445.50;6244231;22;20483;-53
2022/01/01 11:16:39;;;;;;;10.30;1.15;;;;;;;16.67;100.00;99438.81;6244649;22;20039;-53
2022/01/01 11:19:44;;;;;;;2.85;1.05;;;;;;;16.67;100.00;99438.81;6243794;22;20602;-53
2022/01/01 11:22:48;;;;;;;4.53;1.10;;;;;;;16.74;100.00;99431.09;6243769;22;20027;-53
2022/01/01 11:25:54;;;;;;;2.75;0.40;;;;;;;16.81;100.00;99434.06;6243358;22;20043;-53
2022/01/01 11:28:58;;;;;;;6.18;0.63;;;;;;;16.90;100.00;99438.56;6243735;22;20031;-53
2022/01/01 11:32:05;;;;;;;4.32;1.05;;;;;;;16.88;100.00;99449.59;6243023;22;20027;-54
2022/01/01 11:35:11;;;;;;;2.70;0.28;;;;;;;16.91;100.00;99443.69;6243689;22;20035;-53
2022/01/01 11:38:16;;;;;;;8.32;0.68;;;;;;;16.96;100.00;99436.47;6243627;22;20031;-53
2022/01/01 11:41:20;;;;;;;19.00;1.92;;;;;;;16.94;100.00;99451.06;6243106;22;20035;-53
2022/01/01 11:44:31;;;;;;;7.80;1.50;;;;;;;16.93;100.00;99438.28;6243582;22;20031;-53
2022/01/01 11:47:34;;;;;;;9.07;1.15;;;;;;;16.98;100.00;99425.47;6244874;22;20031;-53
2022/01/01 11:50:44;;;;;;;18.70;2.90;;;;;;;17.04;100.00;99431.78;6244369;22;20039;-53
2022/01/01 11:54:18;;;;;;;4.03;0.93;;;;;;;17.15;100.00;99409.88;6243959;22;20043;-53
2022/01/01 11:57:29;;;;;;;1.95;1.05;;;;;;;17.18;100.00;99417.25;6242945;22;20023;-53
2022/01/01 12:00:32;;;;;;;8.05;2.40;;;;;;;17.42;100.00;99422.81;6244745;22;20027;-53
2022/01/01 12:03:53;;;;;;;6.00;1.45;;;;;;;17.53;100.00;99409.88;6244270;22;20028;-53
2022/01/01 12:07:00;;;;;;;3.75;1.65;;;;;;;17.65;100.00;99403.56;6243139;22;20051;-53
2022/01/01 12:10:07;;;;;;;5.22;1.17;;;;;;;17.65;100.00;99411.25;6243491;22;20023;-53
2022/01/01 12:13:12;;;;;;;5.57;1.38;;;;;;;17.63;100.00;99397.69;6223050;23;20027;-53
2022/01/01 12:16:21;;;;;;;9.57;0.88;;;;;;;17.74;100.00;99399.56;6242719;22;20027;-53
2022/01/01 12:19:25;;;;;;;0.77;0.50;;;;;;;17.56;100.00;99400.38;6241871;22;20031;-53
2022/01/01 12:22:37;;;;;;;7.55;0.98;;;;;;;17.39;100.00;99392.13;6243293;22;20023;-53
2022/01/01 12:25:41;;;;;;;;;;;;;;;17.34;100.00;99395.81;6243291;22;20031;-53
2022/01/01 12:28:44;;;;;;;8.80;0.93;;;;;;;17.35;100.00;99386.06;6243262;22;19911;-53
2022/01/01 12:31:56;;;;;;;3.50;0.75;;;;;;;17.58;100.00;99401.38;6242276;22;20031;-53
2022/01/01 12:35:14;;;;;;;3.00;0.20;;;;;;;17.62;100.00;99389.78;6242380;22;20035;-53
2022/01/01 12:38:22;;;;;;;4.90;0.55;;;;;;;17.81;100.00;99391.28;6241542;22;20051;-52
2022/01/01 12:41:34;;;;;;;6.53;0.93;;;;;;;17.76;100.00;99383.66;6243948;22;20035;-53
2022/01/01 12:44:41;;;;;;;1.40;1.20;;;;;;;17.62;100.00;99387.75;6242913;22;20055;-53
2022/01/01 12:47:47;;;;;;;7.07;1.00;;;;;;;17.53;100.00;99388.13;6234607;22;20027;-53
2022/01/01 12:50:57;;;;;;;2.28;0.65;;;;;;;17.62;100.00;99378.53;6240713;22;20337;-53
2022/01/01 12:54:07;;;;;;;4.22;0.22;;;;;;;17.53;100.00;99382.50;6242719;22;20027;-48
2022/01/01 12:57:10;;;;;;;5.57;0.85;;;;;;;17.48;100.00;99363.59;6235761;22;20023;-47
2022/01/01 13:00:23;;;;;;;8.90;3.30;;;;;;;17.58;100.00;99367.59;6236962;22;20031;-48
2022/01/01 13:03:26;;;;;;;4.18;0.20;;;;;;;17.48;100.00;99369.22;6241055;22;20031;-48
2022/01/01 13:06:38;;;;;;;1.45;0.50;;;;;;;17.40;100.00;99376.78;6243460;22;20026;-48
2022/01/01 13:09:43;;;;;;;1.40;0.57;;;;;;;17.51;100.00;99376.66;6242463;23;20024;-48
2022/01/01 13:12:48;;;;;;;5.10;0.90;;;;;;;17.42;100.00;99371.38;6230561;22;20043;-48
2022/01/01 13:15:55;;;;;;;3.55;0.30;;;;;;;17.27;100.00;99359.81;6242494;22;20031;-48
2022/01/01 13:18:59;;;;;;;3.80;0.50;;;;;;;17.25;100.00;99363.19;6242392;22;20468;-48
2022/01/01 13:22:08;;;;;;;9.48;0.50;;;;;;;17.24;100.00;99360.88;6234127;22;20348;-48
2022/01/01 13:25:12;;;;;;;2.45;0.20;;;;;;;17.02;100.00;99347.88;6242266;22;20360;-47
2022/01/01 13:28:15;;;;;;;1.25;0.50;;;;;;;17.04;100.00;99341.75;6242400;22;20046;-47
2022/01/01 13:31:20;;;;;;;14.70;0.85;;;;;;;17.02;100.00;99339.44;6241306;22;20035;-48
2022/01/01 13:34:24;;;;;;;0.65;0.20;;;;;;;16.97;100.00;99343.13;6243729;22;20127;-48
2022/01/01 13:37:27;;;;;;;1.02;0.75;;;;;;;16.98;100.00;99343.88;6242603;22;20027;-48
2022/01/01 13:40:34;;;;;;;4.68;1.08;;;;;;;16.95;100.00;99344.94;6242569;22;20047;-48
2022/01/01 13:43:39;;;;;;;4.07;1.65;;;;;;;16.89;100.00;99328.09;6242217;22;20035;-48
2022/01/01 13:46:43;;;;;;;6.22;1.20;;;;;;;16.85;100.00;99324.84;6242554;22;20031;-47
2022/01/01 13:49:51;;;;;;;6.40;1.05;;;;;;;16.79;100.00;99326.97;6242154;22;20047;-47
2022/01/01 13:52:57;;;;;;;3.22;0.38;;;;;;;16.75;100.00;99320.13;6242675;22;20035;-48
2022/01/01 13:56:11;;;;;;;0.32;0.20;;;;;;;16.60;100.00;99309.34;6242468;22;20027;-47
2022/01/01 13:59:15;;;;;;;1.45;0.17;;;;;;;16.64;100.00;99315.41;6242531;22;20417;-48
2022/01/01 14:02:18;;;;;;;1.35;0.95;;;;;;;16.67;100.00;99309.47;6242886;22;20051;-50
2022/01/01 14:05:23;;;;;;;13.35;1.08;;;;;;;16.65;100.00;99322.56;6244337;22;20038;-49
2022/01/01 14:08:27;;;;;;;7.03;1.00;;;;;;;16.61;100.00;99322.13;6244851;22;20091;-46
2022/01/01 14:11:36;;;;;;;13.30;1.13;;;;;;;16.56;100.00;99332.13;6244634;22;20019;-49
2022/01/01 14:14:44;;;;;;;3.85;0.73;;;;;;;16.54;100.00;99336.75;6243163;22;20027;-49
2022/01/01 14:17:58;;;;;;;6.85;0.82;;;;;;;16.61;100.00;99339.72;6243775;22;20019;-49
2022/01/01 14:21:02;;;;;;;7.05;1.10;;;;;;;16.58;100.00;99334.41;6244029;22;20484;-48
2022/01/01 14:24:05;;;;;;;10.73;0.82;;;;;;;16.49;100.00;99327.06;6244705;22;20027;-48
2022/01/01 14:27:09;;;;;;;1.40;0.65;;;;;;;16.53;100.00;99338.81;6243660;22;20457;-48